KLRF/LRF METAR and TAF weather

Enter ICAO airport designator
Station Type Date Time Source
KLRF METAR 2022/07/03 14:56 UTC NOAA

KLRF 031456Z AUTO 03003KT 10SM OVC019 26/23 A3003 RMK AO2 CIG 016V021 SLP169 T02640228 51012 $


Station Type Date Time Source
KLRF Decoded METAR 2022/07/03 14:56 UTC NOAA

Little Rock Air Force Base, AR, United States (KLRF) 34-55N 092-09W
Jul 03, 2022 - 10:56 AM EDT / 2022.07.03 1456 UTC
Wind: from the NNE (030 degrees) at 3 MPH (3 KT):0
Visibility: 10 mile(s):0
Sky conditions: overcast
Temperature: 79.5 F (26.4 C)
Dew Point: 73.0 F (22.8 C)
Relative Humidity: 80%
Pressure (altimeter): 30.03 in. Hg (1016 hPa)
Pressure tendency: 0.04 inches (1.2 hPa) higher than three hours ago
ob: KLRF 031456Z AUTO 03003KT 10SM OVC019 26/23 A3003 RMK AO2 CIG 016V021 SLP169 T02640228 51012
cycle: 15

Station Type Date Time Source
KLRF TAF 2022/06/30 23:12 UTC NOAA

TAF TAF KLRF 302304Z 3023/0205 VRB06KT 9999 SKC QNH2995INS
BECMG 0111/0112 15006KT 9999 BKN020 QNH3003INS
BECMG 0114/0115 17006KT 9999 SCT040 QNH2991INS TX33/0122Z TN23/0111Z LAST NO
AMDS AFT 3023 NEXT 0515

Example: see airport list